createdAt,value
2018-02-21T00:02:12.953Z,81.34
2018-02-21T00:04:40.500Z,81.76
2018-02-21T00:07:08.069Z,81.53
2018-02-21T00:09:35.696Z,81.34
2018-02-21T00:12:03.256Z,81.65
2018-02-21T00:14:30.828Z,81.21
2018-02-21T00:16:58.426Z,81.80
2018-02-21T00:19:25.999Z,81.65
2018-02-21T00:21:53.553Z,81.43
2018-02-21T00:24:21.130Z,81.53
2018-02-21T00:26:48.692Z,81.69
2018-02-21T00:29:16.254Z,81.44
2018-02-21T00:31:43.855Z,81.56
2018-02-21T00:34:11.409Z,81.45
2018-02-21T00:36:38.965Z,81.28
2018-02-21T00:39:06.579Z,81.26
2018-02-21T00:41:34.141Z,81.04
2018-02-21T00:44:01.714Z,81.22
2018-02-21T00:46:29.324Z,80.81
2018-02-21T00:48:56.895Z,81.40
2018-02-21T00:51:24.461Z,81.42
2018-02-21T00:53:52.050Z,81.11
2018-02-21T00:56:19.627Z,81.27
2018-02-21T00:58:47.212Z,81.36
2018-02-21T01:01:14.793Z,81.33
2018-02-21T01:03:42.348Z,81.69
2018-02-21T01:06:09.908Z,81.03
2018-02-21T01:08:37.497Z,81.06
2018-02-21T01:11:05.035Z,81.46
2018-02-21T01:13:32.602Z,81.25
2018-02-21T01:16:00.204Z,81.36
2018-02-21T01:18:27.764Z,81.09
2018-02-21T01:20:55.363Z,80.72
2018-02-21T01:23:22.944Z,80.84
2018-02-21T01:25:50.503Z,80.84
2018-02-21T01:28:18.062Z,80.75
2018-02-21T01:30:45.672Z,81.30
2018-02-21T01:33:13.228Z,81.51
2018-02-21T01:35:40.818Z,80.88
2018-02-21T01:38:08.417Z,81.37
2018-02-21T01:40:35.985Z,80.55
2018-02-21T01:43:03.559Z,80.65
2018-02-21T01:45:31.163Z,80.95
2018-02-21T01:47:58.733Z,81.72
2018-02-21T01:50:26.363Z,81.62
2018-02-21T01:52:53.998Z,82.04
2018-02-21T01:55:21.598Z,81.63
2018-02-21T01:57:49.168Z,81.79
2018-02-21T02:00:16.798Z,81.42
2018-02-21T02:02:44.383Z,81.62
2018-02-21T02:05:11.959Z,82.26
2018-02-21T02:07:39.574Z,81.50
2018-02-21T02:10:07.166Z,81.72
2018-02-21T02:12:34.740Z,81.25
2018-02-21T02:15:02.361Z,81.52
2018-02-21T02:17:30.076Z,81.11
2018-02-21T02:19:57.638Z,81.37
2018-02-21T02:22:25.252Z,81.27
2018-02-21T02:24:52.872Z,80.88
2018-02-21T02:27:20.459Z,81.50
2018-02-21T02:29:48.070Z,81.95
2018-02-21T02:32:15.647Z,81.76
2018-02-21T02:34:43.249Z,81.66
2018-02-21T02:37:10.854Z,81.87
2018-02-21T02:39:52.146Z,82.36
2018-02-21T02:42:19.753Z,82.11
2018-02-21T02:44:47.322Z,81.90
2018-02-21T02:47:14.956Z,82.08
2018-02-21T02:49:42.559Z,81.84
2018-02-21T02:52:10.138Z,81.27
2018-02-21T02:54:37.716Z,80.78
2018-02-21T02:57:05.316Z,80.85
2018-02-21T02:59:32.900Z,80.17
2018-02-21T03:02:00.464Z,80.59
2018-02-21T03:04:28.083Z,80.49
2018-02-21T03:06:55.650Z,81.01
2018-02-21T03:09:23.265Z,81.02
2018-02-21T03:11:50.901Z,80.76
2018-02-21T03:14:18.468Z,80.85
2018-02-21T03:16:46.030Z,80.92
2018-02-21T03:19:13.627Z,80.74
2018-02-21T03:21:41.195Z,80.71
2018-02-21T03:24:08.774Z,80.91
2018-02-21T03:26:36.380Z,80.75
2018-02-21T03:29:03.963Z,81.06
2018-02-21T03:31:31.520Z,81.27
2018-02-21T03:33:59.142Z,81.54
2018-02-21T03:36:26.749Z,81.60
2018-02-21T03:38:54.333Z,81.82
2018-02-21T03:41:21.927Z,81.60
2018-02-21T03:43:49.487Z,81.43
2018-02-21T03:46:17.047Z,81.74
2018-02-21T03:48:44.650Z,81.54
2018-02-21T03:51:12.212Z,81.63
2018-02-21T03:53:39.778Z,81.91
2018-02-21T03:56:07.373Z,81.96
2018-02-21T03:58:34.978Z,81.77
2018-02-21T04:01:02.535Z,81.96
2018-02-21T04:03:30.199Z,82.07
2018-02-21T04:05:57.751Z,82.06
2018-02-21T04:08:25.314Z,82.27
2018-02-21T04:10:52.922Z,82.21
2018-02-21T04:13:20.490Z,82.80
2018-02-21T04:15:48.112Z,82.67
2018-02-21T04:18:15.718Z,82.45
2018-02-21T04:20:43.288Z,82.84
2018-02-21T04:23:10.855Z,82.44
2018-02-21T04:25:38.455Z,82.22
2018-02-21T04:28:06.048Z,81.93
2018-02-21T04:30:33.632Z,81.86
2018-02-21T04:33:01.241Z,81.15
2018-02-21T04:35:28.811Z,81.15
2018-02-21T04:37:56.385Z,81.36
2018-02-21T04:40:24.029Z,81.36
2018-02-21T04:42:51.584Z,81.74
2018-02-21T04:45:19.164Z,81.79
2018-02-21T04:47:46.776Z,82.43
2018-02-21T04:50:14.378Z,82.12
2018-02-21T04:52:41.952Z,82.50
2018-02-21T04:58:21.157Z,82.48
2018-02-21T05:00:48.823Z,82.44
2018-02-21T05:03:16.380Z,82.50
2018-02-21T05:05:43.954Z,82.50
2018-02-21T05:08:11.597Z,82.06
2018-02-21T05:10:39.164Z,82.14
2018-02-21T05:13:06.741Z,81.90
2018-02-21T05:15:34.628Z,81.98
2018-02-21T05:18:02.223Z,82.12
2018-02-21T05:20:29.788Z,81.72
2018-02-21T05:22:57.387Z,81.59
2018-02-21T05:25:25.008Z,81.28
2018-02-21T05:27:52.575Z,81.45
2018-02-21T05:30:20.183Z,81.46
2018-02-21T05:32:47.797Z,81.36
2018-02-21T05:35:15.362Z,80.81
2018-02-21T05:37:42.973Z,80.76
2018-02-21T05:40:10.550Z,80.69
2018-02-21T05:42:38.132Z,81.02
2018-02-21T05:45:05.739Z,81.45
2018-02-21T05:47:33.309Z,81.78
2018-02-21T05:50:00.884Z,82.14
2018-02-21T05:52:28.479Z,81.62
2018-02-21T05:54:56.051Z,81.71
2018-02-21T05:57:23.611Z,81.87
2018-02-21T05:59:51.227Z,81.99
2018-02-21T06:02:18.812Z,82.20
2018-02-21T06:04:46.372Z,81.98
2018-02-21T06:07:14.043Z,81.61
2018-02-21T06:09:41.603Z,81.52
2018-02-21T06:12:09.182Z,81.78
2018-02-21T06:14:36.791Z,81.88
2018-02-21T06:17:04.386Z,81.89
2018-02-21T06:19:31.958Z,81.16
2018-02-21T06:21:59.627Z,81.66
2018-02-21T06:24:27.224Z,81.91
2018-02-21T06:26:54.794Z,82.65
2018-02-21T06:29:22.403Z,82.26
2018-02-21T06:31:50.072Z,81.46
2018-02-21T06:34:17.650Z,80.95
2018-02-21T06:36:45.261Z,80.38
2018-02-21T06:39:12.863Z,80.91
2018-02-21T06:41:40.462Z,80.80
2018-02-21T06:44:08.069Z,81.14
2018-02-21T06:46:35.621Z,80.97
2018-02-21T06:49:03.201Z,81.29
2018-02-21T06:51:30.818Z,80.79
2018-02-21T06:53:58.392Z,80.58
2018-02-21T06:56:25.973Z,81.23
2018-02-21T06:58:53.591Z,79.20
2018-02-21T07:01:21.163Z,79.20
2018-02-21T07:03:48.728Z,79.95
2018-02-21T07:06:16.356Z,79.92
2018-02-21T07:08:43.930Z,79.51
2018-02-21T07:11:11.539Z,79.04
2018-02-21T07:13:39.148Z,79.15
2018-02-21T07:16:06.718Z,79.39
2018-02-21T07:18:34.303Z,79.79
2018-02-21T07:21:01.925Z,79.06
2018-02-21T07:23:29.546Z,78.45
2018-02-21T07:25:57.131Z,78.40
2018-02-21T07:28:24.734Z,78.70
2018-02-21T07:30:52.369Z,78.30
2018-02-21T07:33:19.944Z,78.12
2018-02-21T07:35:47.565Z,78.53
2018-02-21T07:38:15.162Z,78.41
2018-02-21T07:40:42.730Z,78.58
2018-02-21T07:43:10.354Z,79.05
2018-02-21T07:45:37.939Z,78.35
2018-02-21T07:48:05.496Z,78.19
2018-02-21T07:50:33.096Z,78.02
2018-02-21T07:53:00.685Z,77.87
2018-02-21T07:55:28.282Z,78.44
2018-02-21T07:57:55.903Z,78.56
2018-02-21T08:00:23.483Z,78.17
2018-02-21T08:02:51.047Z,78.59
2018-02-21T08:05:18.682Z,78.69
2018-02-21T08:07:46.264Z,78.58
2018-02-21T08:10:13.829Z,78.80
2018-02-21T08:12:41.564Z,78.79
2018-02-21T08:15:09.139Z,78.57
2018-02-21T08:17:36.716Z,77.96
2018-02-21T08:20:04.339Z,77.33
2018-02-21T08:22:31.920Z,76.82
2018-02-21T08:24:59.544Z,76.90
2018-02-21T08:27:27.156Z,75.76
2018-02-21T08:29:54.739Z,75.95
2018-02-21T08:32:22.323Z,77.19
2018-02-21T08:34:49.940Z,76.20
2018-02-21T08:37:17.517Z,76.54
2018-02-21T08:39:45.104Z,76.24
2018-02-21T08:42:12.728Z,76.24
2018-02-21T08:44:40.326Z,76.34
2018-02-21T08:47:07.913Z,76.78
2018-02-21T08:49:35.512Z,76.39
2018-02-21T08:52:03.101Z,76.14
2018-02-21T08:54:30.696Z,76.21
2018-02-21T08:56:58.319Z,76.27
2018-02-21T08:59:25.892Z,76.80
2018-02-21T09:01:53.470Z,76.02
2018-02-21T09:04:21.138Z,76.15
2018-02-21T09:06:48.720Z,76.11
2018-02-21T09:09:16.300Z,75.79
2018-02-21T09:11:43.920Z,76.02
2018-02-21T09:14:11.524Z,75.74
2018-02-21T09:16:39.146Z,75.24
2018-02-21T09:19:06.785Z,76.15
2018-02-21T09:21:34.378Z,75.60
2018-02-21T09:24:01.949Z,75.64
2018-02-21T09:26:29.564Z,75.72
2018-02-21T09:28:57.142Z,75.94
2018-02-21T09:31:24.722Z,75.92
2018-02-21T09:33:52.326Z,74.83
2018-02-21T09:36:19.898Z,74.98
2018-02-21T09:38:47.512Z,74.30
2018-02-21T09:41:15.155Z,74.13
2018-02-21T09:43:42.734Z,73.76
2018-02-21T09:46:10.313Z,73.46
2018-02-21T09:48:37.940Z,73.04
2018-02-21T09:51:05.530Z,72.30
2018-02-21T09:53:33.104Z,72.75
2018-02-21T09:56:00.721Z,73.27
2018-02-21T09:58:28.298Z,74.34
2018-02-21T10:00:55.929Z,74.04
2018-02-21T10:03:23.495Z,74.36
2018-02-21T10:05:51.082Z,74.34
2018-02-21T10:08:18.666Z,75.30
2018-02-21T10:10:46.328Z,76.00
2018-02-21T10:13:13.925Z,76.97
2018-02-21T10:15:41.522Z,77.79
2018-02-21T10:18:09.173Z,77.89
2018-02-21T10:20:36.758Z,77.49
2018-02-21T10:23:04.338Z,78.76
2018-02-21T10:25:31.940Z,78.24
2018-02-21T10:27:59.522Z,78.58
2018-02-21T10:30:27.129Z,78.91
2018-02-21T10:32:54.735Z,79.57
2018-02-21T10:35:22.332Z,79.43
2018-02-21T10:37:49.904Z,79.40
2018-02-21T10:40:17.568Z,79.92
2018-02-21T10:42:45.180Z,81.04
2018-02-21T10:45:12.765Z,81.93
2018-02-21T10:47:40.377Z,81.08
2018-02-21T10:50:07.944Z,80.14
2018-02-21T10:52:35.529Z,80.66
2018-02-21T10:55:03.137Z,80.96
2018-02-21T10:57:30.702Z,80.32
2018-02-21T10:59:58.290Z,80.87
2018-02-21T11:02:25.913Z,81.29
2018-02-21T11:04:53.529Z,81.37
2018-02-21T11:07:21.095Z,81.30
2018-02-21T11:09:48.691Z,81.55
2018-02-21T11:12:16.275Z,83.18
2018-02-21T11:14:43.856Z,83.56
2018-02-21T11:17:11.468Z,83.40
2018-02-21T11:19:39.053Z,84.47
2018-02-21T11:22:06.612Z,84.77
2018-02-21T11:24:34.223Z,85.01
2018-02-21T11:27:01.807Z,85.45
2018-02-21T11:29:29.394Z,86.54
2018-02-21T11:31:57.062Z,86.44
2018-02-21T11:34:24.706Z,86.60
2018-02-21T11:36:52.294Z,87.40
2018-02-21T11:39:19.910Z,87.39
2018-02-21T11:41:47.501Z,88.43
2018-02-21T11:44:15.085Z,89.09
2018-02-21T11:46:42.696Z,90.41
2018-02-21T11:49:10.285Z,89.18
2018-02-21T11:51:37.866Z,89.43
2018-02-21T11:54:05.504Z,90.23
2018-02-21T11:56:33.097Z,89.71
2018-02-21T11:59:00.842Z,89.59
2018-02-21T12:01:28.454Z,89.13
2018-02-21T12:03:56.024Z,90.28
2018-02-21T12:06:23.600Z,90.45
2018-02-21T12:08:51.222Z,90.83
2018-02-21T12:11:18.807Z,89.41
2018-02-21T12:13:46.394Z,89.84
2018-02-21T12:16:14.001Z,90.24
2018-02-21T12:18:41.591Z,90.51
2018-02-21T12:21:09.177Z,89.67
2018-02-21T12:23:36.787Z,89.00
2018-02-21T12:26:04.339Z,88.20
2018-02-21T12:28:31.904Z,89.03
2018-02-21T12:30:59.558Z,88.74
2018-02-21T12:33:27.130Z,90.40
2018-02-21T12:35:54.750Z,90.26
2018-02-21T12:38:22.331Z,90.83
2018-02-21T12:40:55.406Z,90.23
2018-02-21T12:43:22.987Z,91.27
2018-02-21T12:45:50.578Z,89.78
2018-02-21T12:48:18.153Z,90.67
2018-02-21T12:50:45.748Z,90.88
2018-02-21T12:53:13.332Z,90.42
2018-02-21T12:55:41.026Z,90.07
2018-02-21T12:58:08.605Z,90.41
2018-02-21T13:00:36.185Z,90.76
2018-02-21T13:03:03.750Z,91.02
2018-02-21T13:05:31.344Z,88.92
2018-02-21T13:07:58.904Z,89.69
2018-02-21T13:10:26.478Z,90.42
2018-02-21T13:12:54.090Z,91.08
2018-02-21T13:15:21.856Z,90.13
2018-02-21T13:17:49.440Z,91.65
2018-02-21T13:20:17.114Z,91.51
2018-02-21T13:22:44.689Z,92.26
2018-02-21T13:25:12.267Z,92.61
2018-02-21T13:27:39.881Z,92.54
2018-02-21T13:30:07.450Z,91.82
2018-02-21T13:32:35.085Z,92.27
2018-02-21T13:35:02.701Z,91.78
2018-02-21T13:37:30.298Z,92.34
2018-02-21T13:39:58.815Z,91.72
2018-02-21T13:42:26.419Z,91.55
2018-02-21T13:44:54.021Z,92.07
2018-02-21T13:47:21.591Z,91.88
2018-02-21T13:49:49.223Z,91.86
2018-02-21T13:52:16.797Z,91.82
2018-02-21T13:54:44.386Z,90.96
2018-02-21T13:57:11.979Z,91.37
2018-02-21T13:59:39.556Z,91.15
2018-02-21T14:02:07.138Z,90.68
2018-02-21T14:04:34.755Z,91.27
2018-02-21T14:07:02.357Z,90.58
2018-02-21T14:09:29.916Z,91.00
2018-02-21T14:11:57.544Z,91.10
2018-02-21T14:14:25.141Z,91.15
2018-02-21T14:16:52.703Z,91.12
2018-02-21T14:19:20.327Z,91.02
2018-02-21T14:21:47.914Z,91.41
2018-02-21T14:24:15.482Z,91.20
2018-02-21T14:26:43.102Z,90.80
2018-02-21T14:29:10.703Z,89.49
2018-02-21T14:31:38.295Z,90.29
2018-02-21T14:34:05.915Z,90.37
2018-02-21T14:36:33.496Z,91.48
2018-02-21T14:39:01.201Z,91.77
2018-02-21T14:41:28.808Z,91.64
2018-02-21T14:43:56.388Z,91.12
2018-02-21T14:46:23.951Z,90.41
2018-02-21T14:48:51.560Z,90.35
2018-02-21T14:51:19.132Z,90.42
2018-02-21T14:53:46.721Z,90.78
2018-02-21T14:56:14.335Z,90.49
2018-02-21T14:58:41.936Z,90.34
2018-02-21T15:01:09.543Z,90.64
2018-02-21T15:03:37.147Z,89.86
2018-02-21T15:06:04.721Z,90.18
2018-02-21T15:08:32.296Z,90.22
2018-02-21T15:10:59.944Z,90.27
2018-02-21T15:13:27.512Z,90.36
2018-02-21T15:15:55.067Z,90.14
2018-02-21T15:18:22.698Z,90.67
2018-02-21T15:20:50.278Z,90.86
2018-02-21T15:23:17.858Z,91.18
2018-02-21T15:25:45.477Z,90.75
2018-02-21T15:28:13.062Z,91.15
2018-02-21T15:30:40.631Z,91.22
2018-02-21T15:33:08.397Z,90.53
2018-02-21T15:35:35.991Z,89.72
2018-02-21T15:38:03.556Z,91.10
2018-02-21T15:40:31.180Z,90.07
2018-02-21T15:42:58.763Z,90.20
2018-02-21T15:45:26.334Z,90.80
2018-02-21T15:47:54.016Z,90.78
2018-02-21T15:50:21.622Z,91.47
2018-02-21T15:52:49.202Z,90.80
2018-02-21T15:55:16.794Z,91.35
2018-02-21T15:57:44.357Z,90.55
2018-02-21T16:00:11.933Z,91.04
2018-02-21T16:02:39.553Z,91.38
2018-02-21T16:05:07.128Z,92.79
2018-02-21T16:07:34.748Z,91.98
2018-02-21T16:10:02.371Z,92.40
2018-02-21T16:12:29.936Z,92.09
2018-02-21T16:14:57.519Z,92.85
2018-02-21T16:17:25.137Z,92.72
2018-02-21T16:19:52.742Z,91.85
2018-02-21T16:22:20.317Z,92.68
2018-02-21T16:24:47.933Z,93.30
2018-02-21T16:27:15.565Z,92.57
2018-02-21T16:29:43.174Z,92.59
2018-02-21T16:32:10.770Z,92.49
2018-02-21T16:34:38.348Z,92.43
2018-02-21T16:37:06.004Z,92.47
2018-02-21T16:39:33.644Z,93.17
2018-02-21T16:42:01.221Z,92.39
2018-02-21T16:44:28.810Z,92.29
2018-02-21T16:46:56.395Z,92.58
2018-02-21T16:49:24.005Z,92.09
2018-02-21T16:51:51.564Z,92.21
2018-02-21T16:54:22.023Z,92.36
2018-02-21T16:56:49.592Z,92.43
2018-02-21T16:59:17.182Z,92.76
2018-02-21T17:01:44.784Z,92.40
2018-02-21T17:04:12.343Z,91.85
2018-02-21T17:06:39.904Z,92.02
2018-02-21T17:09:07.542Z,91.66
2018-02-21T17:11:35.289Z,91.07
2018-02-21T17:14:02.930Z,90.90
2018-02-21T17:16:30.539Z,91.75
2018-02-21T17:18:58.114Z,91.53
2018-02-21T17:21:25.679Z,91.02
2018-02-21T17:23:53.308Z,91.01
2018-02-21T17:26:20.887Z,91.24
2018-02-21T17:28:48.464Z,91.64
2018-02-21T17:31:16.150Z,92.02
2018-02-21T17:33:43.713Z,91.56
2018-02-21T17:36:11.318Z,92.18
2018-02-21T17:38:38.938Z,92.19
2018-02-21T17:41:12.116Z,91.95
2018-02-21T17:43:39.725Z,92.38
2018-02-21T17:46:07.404Z,92.72
2018-02-21T17:48:34.972Z,92.99
2018-02-21T17:51:02.631Z,93.35
2018-02-21T17:53:30.187Z,93.34
2018-02-21T17:55:57.801Z,93.66
2018-02-21T17:58:25.388Z,93.20
2018-02-21T18:00:53.013Z,92.92
2018-02-21T18:03:20.656Z,92.26
2018-02-21T18:05:48.231Z,92.59
2018-02-21T18:08:15.796Z,92.42
2018-02-21T18:10:43.375Z,92.24
2018-02-21T18:13:10.978Z,92.58
2018-02-21T18:15:38.543Z,92.59
2018-02-21T18:18:06.113Z,91.74
2018-02-21T18:20:33.710Z,91.76
2018-02-21T18:23:01.297Z,91.74
2018-02-21T18:25:28.874Z,91.98
2018-02-21T18:27:56.475Z,91.95
2018-02-21T18:30:24.046Z,92.07
2018-02-21T18:32:51.607Z,92.39
2018-02-21T18:35:19.214Z,92.60
2018-02-21T18:37:46.992Z,92.04
2018-02-21T18:40:14.575Z,92.20
2018-02-21T18:42:42.181Z,92.75
2018-02-21T18:45:09.749Z,92.41
2018-02-21T18:47:37.360Z,92.58
2018-02-21T18:50:04.948Z,92.58
2018-02-21T18:52:32.516Z,92.56
2018-02-21T18:55:00.098Z,92.56
2018-02-21T18:57:27.701Z,92.68
2018-02-21T18:59:55.329Z,92.03
2018-02-21T19:02:22.915Z,92.30
2018-02-21T19:04:50.522Z,92.38
2018-02-21T19:07:18.125Z,92.11
2018-02-21T19:09:45.707Z,91.45
2018-02-21T19:12:13.368Z,92.55
2018-02-21T19:14:40.958Z,92.37
2018-02-21T19:17:08.564Z,92.45
2018-02-21T19:19:36.197Z,92.52
2018-02-21T19:22:03.770Z,92.76
2018-02-21T19:24:32.044Z,92.21
2018-02-21T19:26:59.676Z,92.28
2018-02-21T19:29:27.243Z,92.85
2018-02-21T19:31:54.845Z,92.80
2018-02-21T19:34:22.444Z,92.69
2018-02-21T19:36:50.022Z,92.34
2018-02-21T19:39:17.583Z,92.19
2018-02-21T19:41:45.206Z,92.24
2018-02-21T19:44:12.835Z,92.35
2018-02-21T19:46:40.419Z,92.42
2018-02-21T19:49:08.053Z,92.05
2018-02-21T19:51:35.621Z,91.99
2018-02-21T19:54:03.183Z,91.62
2018-02-21T19:56:30.894Z,91.49
2018-02-21T19:58:58.488Z,91.23
2018-02-21T20:01:26.044Z,91.02
2018-02-21T20:03:53.702Z,90.74
2018-02-21T20:06:21.259Z,91.41
2018-02-21T20:08:48.824Z,90.99
2018-02-21T20:11:16.448Z,90.45
2018-02-21T20:13:44.001Z,90.01
2018-02-21T20:16:11.795Z,90.45
2018-02-21T20:18:39.409Z,90.45
2018-02-21T20:21:06.963Z,90.76
2018-02-21T20:23:34.527Z,90.55
2018-02-21T20:26:02.142Z,90.75
2018-02-21T20:28:29.707Z,90.77
2018-02-21T20:30:57.274Z,90.80
2018-02-21T20:33:24.921Z,91.06
2018-02-21T20:35:52.488Z,91.05
2018-02-21T20:38:20.076Z,90.62
2018-02-21T20:40:47.704Z,90.71
2018-02-21T20:43:15.256Z,90.35
2018-02-21T20:45:42.822Z,90.32
2018-02-21T20:48:10.408Z,90.12
2018-02-21T20:50:37.962Z,90.56
2018-02-21T20:53:05.520Z,90.37
2018-02-21T20:55:33.134Z,90.44
2018-02-21T20:58:00.687Z,90.89
2018-02-21T21:00:28.281Z,90.46
2018-02-21T21:02:55.888Z,90.83
2018-02-21T21:05:23.489Z,90.81
2018-02-21T21:07:51.092Z,91.01
2018-02-21T21:10:18.736Z,90.91
2018-02-21T21:12:46.326Z,90.23
2018-02-21T21:15:13.878Z,90.43
2018-02-21T21:17:41.492Z,90.59
2018-02-21T21:20:09.171Z,91.28
2018-02-21T21:22:36.760Z,91.12
2018-02-21T21:25:04.372Z,91.57
2018-02-21T21:27:31.959Z,91.54
2018-02-21T21:29:59.518Z,91.33
2018-02-21T21:32:27.124Z,91.19
2018-02-21T21:34:54.683Z,90.94
2018-02-21T21:37:22.236Z,91.50
2018-02-21T21:39:49.835Z,92.00
2018-02-21T21:42:17.432Z,91.62
2018-02-21T21:44:45.047Z,91.49
2018-02-21T21:47:12.606Z,91.09
2018-02-21T21:49:40.173Z,91.01
2018-02-21T21:52:07.758Z,91.28
2018-02-21T21:54:35.325Z,91.96
2018-02-21T21:57:02.878Z,92.51
2018-02-21T21:59:30.481Z,92.70
2018-02-21T22:01:58.049Z,93.06
2018-02-21T22:04:25.638Z,93.56
2018-02-21T22:06:53.309Z,93.69
2018-02-21T22:09:20.864Z,94.12
2018-02-21T22:11:48.421Z,93.84
2018-02-21T22:14:16.138Z,94.26
2018-02-21T22:16:43.702Z,93.73
2018-02-21T22:19:11.257Z,94.00
2018-02-21T22:21:38.849Z,94.18
2018-02-21T22:24:06.419Z,94.08
2018-02-21T22:26:33.981Z,93.64
2018-02-21T22:29:01.567Z,93.66
2018-02-21T22:31:29.125Z,93.49
2018-02-21T22:33:56.702Z,93.48
2018-02-21T22:36:24.301Z,92.83
2018-02-21T22:38:51.916Z,92.68
2018-02-21T22:41:19.473Z,92.87
2018-02-21T22:43:47.076Z,92.90
2018-02-21T22:46:14.785Z,92.70
2018-02-21T22:48:42.369Z,92.77
2018-02-21T22:51:10.326Z,92.97
2018-02-21T22:53:37.878Z,92.01
2018-02-21T22:56:05.539Z,92.38
2018-02-21T22:58:33.253Z,92.00
2018-02-21T23:01:00.850Z,92.11
2018-02-21T23:03:28.424Z,92.26
2018-02-21T23:05:56.019Z,92.32
2018-02-21T23:08:23.586Z,92.43
2018-02-21T23:10:51.173Z,92.59
2018-02-21T23:13:18.790Z,92.46
2018-02-21T23:15:46.364Z,92.73
2018-02-21T23:18:13.954Z,93.51
2018-02-21T23:20:41.556Z,93.61
2018-02-21T23:23:09.106Z,94.08
2018-02-21T23:25:36.688Z,94.77
2018-02-21T23:28:04.315Z,95.76
2018-02-21T23:30:31.869Z,95.43
2018-02-21T23:32:59.431Z,95.41
2018-02-21T23:35:27.031Z,95.80
2018-02-21T23:37:54.605Z,95.65
2018-02-21T23:40:22.183Z,94.99
2018-02-21T23:42:49.811Z,94.96
2018-02-21T23:45:17.366Z,95.03
2018-02-21T23:47:44.922Z,94.83
2018-02-21T23:50:12.519Z,94.91
2018-02-21T23:52:40.128Z,95.14
2018-02-21T23:55:07.712Z,95.07
2018-02-21T23:57:35.363Z,94.64
